sensor_id;sensor_type;location;lat;lon;timestamp;pressure;altitude;pressure_sealevel;temperature;humidity
77118;BME280;66072;50.238;19.228;2024-03-23T00:54:02;97889.73;;;8.61;80.62
77118;BME280;66072;50.238;19.228;2024-03-23T00:56:30;97886.15;;;8.58;80.63
77118;BME280;66072;50.238;19.228;2024-03-23T00:58:57;97884.44;;;8.54;80.59
77118;BME280;66072;50.238;19.228;2024-03-23T01:01:24;97886.61;;;8.52;80.78
77118;BME280;66072;50.238;19.228;2024-03-23T01:03:52;97884.34;;;8.49;81.75
77118;BME280;66072;50.238;19.228;2024-03-23T01:06:19;97880.02;;;8.47;81.60
77118;BME280;66072;50.238;19.228;2024-03-23T01:08:47;97878.39;;;8.45;82.03
77118;BME280;66072;50.238;19.228;2024-03-23T01:11:14;97873.90;;;8.43;82.26
77118;BME280;66072;50.238;19.228;2024-03-23T01:13:42;97865.36;;;8.40;82.09
77118;BME280;66072;50.238;19.228;2024-03-23T01:16:09;97865.11;;;8.38;82.34
77118;BME280;66072;50.238;19.228;2024-03-23T01:18:37;97861.79;;;8.36;82.79
77118;BME280;66072;50.238;19.228;2024-03-23T01:21:04;97864.08;;;8.35;83.13
77118;BME280;66072;50.238;19.228;2024-03-23T01:23:31;97861.13;;;8.32;83.42
77118;BME280;66072;50.238;19.228;2024-03-23T01:25:59;97852.22;;;8.29;83.60
77118;BME280;66072;50.238;19.228;2024-03-23T01:28:26;97852.35;;;8.26;84.00
77118;BME280;66072;50.238;19.228;2024-03-23T01:30:54;97853.50;;;8.24;84.16
77118;BME280;66072;50.238;19.228;2024-03-23T01:33:21;97849.02;;;8.21;84.15
77118;BME280;66072;50.238;19.228;2024-03-23T01:35:48;97845.80;;;8.17;84.21
77118;BME280;66072;50.238;19.228;2024-03-23T01:38:16;97844.25;;;8.14;84.56
77118;BME280;66072;50.238;19.228;2024-03-23T01:40:43;97837.05;;;8.11;84.81
77118;BME280;66072;50.238;19.228;2024-03-23T01:43:11;97832.57;;;8.08;84.61
77118;BME280;66072;50.238;19.228;2024-03-23T01:45:39;97830.70;;;8.05;84.78
77118;BME280;66072;50.238;19.228;2024-03-23T01:48:07;97827.71;;;8.03;85.01
77118;BME280;66072;50.238;19.228;2024-03-23T01:50:34;97828.70;;;8.00;85.29
77118;BME280;66072;50.238;19.228;2024-03-23T01:53:02;97828.95;;;7.98;85.62
77118;BME280;66072;50.238;19.228;2024-03-23T01:55:31;97827.13;;;7.97;85.72
77118;BME280;66072;50.238;19.228;2024-03-23T01:57:59;97823.79;;;7.96;85.86
77118;BME280;66072;50.238;19.228;2024-03-23T02:00:26;97823.21;;;7.94;85.76
77118;BME280;66072;50.238;19.228;2024-03-23T02:02:54;97822.25;;;7.92;85.82
77118;BME280;66072;50.238;19.228;2024-03-23T02:05:21;97820.25;;;7.91;86.00
77118;BME280;66072;50.238;19.228;2024-03-23T02:07:50;97817.63;;;7.89;85.93
77118;BME280;66072;50.238;19.228;2024-03-23T02:10:18;97818.67;;;7.89;86.33
77118;BME280;66072;50.238;19.228;2024-03-23T02:12:45;97813.83;;;7.87;86.57
77118;BME280;66072;50.238;19.228;2024-03-23T02:15:13;97811.51;;;7.85;87.06
77118;BME280;66072;50.238;19.228;2024-03-23T02:17:40;97806.63;;;7.84;86.91
77118;BME280;66072;50.238;19.228;2024-03-23T02:20:08;97805.30;;;7.84;86.84
77118;BME280;66072;50.238;19.228;2024-03-23T02:22:39;97801.08;;;7.83;86.74
77118;BME280;66072;50.238;19.228;2024-03-23T02:25:06;97799.58;;;7.82;87.02
77118;BME280;66072;50.238;19.228;2024-03-23T02:27:34;97798.01;;;7.83;87.06
77118;BME280;66072;50.238;19.228;2024-03-23T02:30:01;97793.92;;;7.83;87.11
77118;BME280;66072;50.238;19.228;2024-03-23T02:32:29;97788.95;;;7.84;87.13
77118;BME280;66072;50.238;19.228;2024-03-23T02:34:56;97796.58;;;7.84;87.48
77118;BME280;66072;50.238;19.228;2024-03-23T02:37:24;97787.02;;;7.84;87.36
77118;BME280;66072;50.238;19.228;2024-03-23T02:39:51;97776.06;;;7.86;87.02
77118;BME280;66072;50.238;19.228;2024-03-23T02:42:18;97767.87;;;7.94;86.16
77118;BME280;66072;50.238;19.228;2024-03-23T02:44:46;97768.55;;;8.01;85.53
77118;BME280;66072;50.238;19.228;2024-03-23T02:47:13;97778.00;;;8.10;84.55
77118;BME280;66072;50.238;19.228;2024-03-23T02:49:41;97776.73;;;8.22;83.83
77118;BME280;66072;50.238;19.228;2024-03-23T02:52:08;97771.18;;;8.31;83.73
77118;BME280;66072;50.238;19.228;2024-03-23T02:54:36;97769.73;;;8.37;83.37
77118;BME280;66072;50.238;19.228;2024-03-23T02:57:03;97766.25;;;8.42;83.15
77118;BME280;66072;50.238;19.228;2024-03-23T02:59:30;97765.59;;;8.45;83.19
77118;BME280;66072;50.238;19.228;2024-03-23T03:01:58;97764.88;;;8.46;83.09
77118;BME280;66072;50.238;19.228;2024-03-23T03:04:25;97759.92;;;8.46;82.86
77118;BME280;66072;50.238;19.228;2024-03-23T03:06:53;97752.72;;;8.47;82.38
77118;BME280;66072;50.238;19.228;2024-03-23T03:09:20;97739.34;;;8.49;82.87
77118;BME280;66072;50.238;19.228;2024-03-23T03:11:48;97753.88;;;8.48;82.91
77118;BME280;66072;50.238;19.228;2024-03-23T03:14:15;97741.81;;;8.47;82.91
77118;BME280;66072;50.238;19.228;2024-03-23T03:16:42;97739.29;;;8.46;82.98
77118;BME280;66072;50.238;19.228;2024-03-23T03:19:10;97736.46;;;8.45;83.11
77118;BME280;66072;50.238;19.228;2024-03-23T03:21:38;97747.14;;;8.43;83.60
77118;BME280;66072;50.238;19.228;2024-03-23T03:24:06;97740.58;;;8.41;83.03
77118;BME280;66072;50.238;19.228;2024-03-23T03:26:33;97738.06;;;8.40;82.72
77118;BME280;66072;50.238;19.228;2024-03-23T03:29:02;97740.14;;;8.40;82.56
77118;BME280;66072;50.238;19.228;2024-03-23T03:31:29;97740.11;;;8.40;82.54
77118;BME280;66072;50.238;19.228;2024-03-23T03:33:57;97738.38;;;8.41;82.46
77118;BME280;66072;50.238;19.228;2024-03-23T03:36:24;97737.86;;;8.41;82.68
77118;BME280;66072;50.238;19.228;2024-03-23T03:38:51;97727.05;;;8.39;82.76
77118;BME280;66072;50.238;19.228;2024-03-23T03:41:19;97727.29;;;8.38;83.14
77118;BME280;66072;50.238;19.228;2024-03-23T03:43:46;97729.74;;;8.37;83.55
77118;BME280;66072;50.238;19.228;2024-03-23T03:46:14;97713.09;;;8.34;83.82
77118;BME280;66072;50.238;19.228;2024-03-23T03:48:41;97706.05;;;8.32;84.19
77118;BME280;66072;50.238;19.228;2024-03-23T03:51:09;97707.28;;;8.28;84.66
77118;BME280;66072;50.238;19.228;2024-03-23T03:53:36;97715.30;;;8.24;84.95
77118;BME280;66072;50.238;19.228;2024-03-23T03:56:04;97712.98;;;8.20;85.73
77118;BME280;66072;50.238;19.228;2024-03-23T03:58:31;97711.00;;;8.15;86.19
77118;BME280;66072;50.238;19.228;2024-03-23T04:00:58;97717.69;;;8.10;86.61
77118;BME280;66072;50.238;19.228;2024-03-23T04:03:26;97715.89;;;8.05;86.70
77118;BME280;66072;50.238;19.228;2024-03-23T04:05:54;97715.54;;;8.02;87.01
77118;BME280;66072;50.238;19.228;2024-03-23T04:08:21;97715.33;;;7.99;87.46
77118;BME280;66072;50.238;19.228;2024-03-23T04:10:49;97714.23;;;7.97;87.78
77118;BME280;66072;50.238;19.228;2024-03-23T04:13:16;97720.36;;;7.94;88.42
77118;BME280;66072;50.238;19.228;2024-03-23T04:15:44;97718.27;;;7.91;88.82
77118;BME280;66072;50.238;19.228;2024-03-23T04:18:11;97717.19;;;7.89;88.93
77118;BME280;66072;50.238;19.228;2024-03-23T04:20:39;97716.06;;;7.88;89.07
77118;BME280;66072;50.238;19.228;2024-03-23T04:23:06;97706.80;;;7.85;89.45
77118;BME280;66072;50.238;19.228;2024-03-23T04:25:34;97705.27;;;7.82;89.82
77118;BME280;66072;50.238;19.228;2024-03-23T04:28:01;97697.30;;;7.77;90.14
77118;BME280;66072;50.238;19.228;2024-03-23T04:30:28;97687.09;;;7.74;90.75
77118;BME280;66072;50.238;19.228;2024-03-23T04:32:56;97679.77;;;7.70;91.29
77118;BME280;66072;50.238;19.228;2024-03-23T04:35:27;97676.21;;;7.67;91.71
77118;BME280;66072;50.238;19.228;2024-03-23T04:37:54;97667.17;;;7.64;92.10
77118;BME280;66072;50.238;19.228;2024-03-23T04:40:21;97657.06;;;7.61;92.72
77118;BME280;66072;50.238;19.228;2024-03-23T04:42:49;97650.73;;;7.58;93.26
77118;BME280;66072;50.238;19.228;2024-03-23T04:45:16;97656.79;;;7.57;93.45
77118;BME280;66072;50.238;19.228;2024-03-23T04:47:44;97653.41;;;7.56;93.81
77118;BME280;66072;50.238;19.228;2024-03-23T04:50:11;97653.93;;;7.56;93.97
77118;BME280;66072;50.238;19.228;2024-03-23T04:52:39;97650.04;;;7.55;94.10
77118;BME280;66072;50.238;19.228;2024-03-23T04:55:06;97647.48;;;7.55;94.26
77118;BME280;66072;50.238;19.228;2024-03-23T04:57:34;97646.91;;;7.57;94.44
77118;BME280;66072;50.238;19.228;2024-03-23T05:00:01;97645.00;;;7.57;94.63
77118;BME280;66072;50.238;19.228;2024-03-23T05:02:29;97639.55;;;7.58;94.85
77118;BME280;66072;50.238;19.228;2024-03-23T05:04:56;97636.01;;;7.57;94.94
77118;BME280;66072;50.238;19.228;2024-03-23T05:07:24;97635.64;;;7.57;95.31
77118;BME280;66072;50.238;19.228;2024-03-23T05:09:51;97637.02;;;7.57;95.14
77118;BME280;66072;50.238;19.228;2024-03-23T05:12:18;97643.77;;;7.58;95.14
77118;BME280;66072;50.238;19.228;2024-03-23T05:14:46;97642.87;;;7.59;95.13
77118;BME280;66072;50.238;19.228;2024-03-23T05:17:13;97644.95;;;7.58;95.26
77118;BME280;66072;50.238;19.228;2024-03-23T05:19:40;97641.44;;;7.57;95.35
77118;BME280;66072;50.238;19.228;2024-03-23T05:22:08;97641.88;;;7.58;95.35
77118;BME280;66072;50.238;19.228;2024-03-23T05:24:36;97642.73;;;7.59;95.35
77118;BME280;66072;50.238;19.228;2024-03-23T05:27:03;97651.04;;;7.59;95.55
77118;BME280;66072;50.238;19.228;2024-03-23T05:29:31;97649.31;;;7.59;95.36
77118;BME280;66072;50.238;19.228;2024-03-23T05:31:58;97645.96;;;7.62;95.35
77118;BME280;66072;50.238;19.228;2024-03-23T05:34:25;97643.05;;;7.66;95.19
77118;BME280;66072;50.238;19.228;2024-03-23T05:36:53;97640.48;;;7.70;95.19
77118;BME280;66072;50.238;19.228;2024-03-23T05:39:20;97638.11;;;7.73;95.24
77118;BME280;66072;50.238;19.228;2024-03-23T05:41:48;97635.42;;;7.76;95.37
77118;BME280;66072;50.238;19.228;2024-03-23T05:44:15;97635.64;;;7.78;95.63
77118;BME280;66072;50.238;19.228;2024-03-23T05:46:43;97630.98;;;7.83;95.61
77118;BME280;66072;50.238;19.228;2024-03-23T05:49:10;97627.56;;;7.87;95.71
77118;BME280;66072;50.238;19.228;2024-03-23T05:51:37;97631.28;;;7.91;95.88
77118;BME280;66072;50.238;19.228;2024-03-23T05:54:05;97625.00;;;7.94;95.80
77118;BME280;66072;50.238;19.228;2024-03-23T05:56:32;97620.19;;;7.98;95.92
77118;BME280;66072;50.238;19.228;2024-03-23T05:59:00;97624.30;;;8.01;95.95
77118;BME280;66072;50.238;19.228;2024-03-23T06:01:27;97627.27;;;8.03;95.90
77118;BME280;66072;50.238;19.228;2024-03-23T06:03:54;97626.15;;;8.05;95.96
77118;BME280;66072;50.238;19.228;2024-03-23T06:06:22;97626.75;;;8.06;96.09
77118;BME280;66072;50.238;19.228;2024-03-23T06:08:49;97625.28;;;8.08;96.26
77118;BME280;66072;50.238;19.228;2024-03-23T06:11:17;97628.07;;;8.11;96.36
77118;BME280;66072;50.238;19.228;2024-03-23T06:13:44;97624.16;;;8.14;96.13
77118;BME280;66072;50.238;19.228;2024-03-23T06:16:12;97619.06;;;8.18;95.82
77118;BME280;66072;50.238;19.228;2024-03-23T06:18:39;97609.16;;;8.21;95.69
77118;BME280;66072;50.238;19.228;2024-03-23T06:21:13;97600.96;;;8.25;95.73
77118;BME280;66072;50.238;19.228;2024-03-23T06:23:41;97599.51;;;8.30;95.75
77118;BME280;66072;50.238;19.228;2024-03-23T06:26:09;97595.98;;;8.36;95.82
77118;BME280;66072;50.238;19.228;2024-03-23T06:28:36;97593.11;;;8.42;95.79
77118;BME280;66072;50.238;19.228;2024-03-23T06:31:09;97593.12;;;8.49;95.65
77118;BME280;66072;50.238;19.228;2024-03-23T06:33:37;97580.68;;;8.58;95.75
77118;BME280;66072;50.238;19.228;2024-03-23T06:36:05;97579.06;;;8.70;95.10
77118;BME280;66072;50.238;19.228;2024-03-23T06:38:33;97583.64;;;8.83;94.77
77118;BME280;66072;50.238;19.228;2024-03-23T06:41:04;97582.70;;;8.97;94.63
77118;BME280;66072;50.238;19.228;2024-03-23T06:43:32;97576.91;;;9.12;94.29
77118;BME280;66072;50.238;19.228;2024-03-23T06:45:59;97569.08;;;9.28;93.81
77118;BME280;66072;50.238;19.228;2024-03-23T06:48:27;97558.70;;;9.45;93.25
77118;BME280;66072;50.238;19.228;2024-03-23T06:50:57;97561.55;;;9.61;92.23
77118;BME280;66072;50.238;19.228;2024-03-23T06:53:25;97566.29;;;9.77;91.98
77118;BME280;66072;50.238;19.228;2024-03-23T06:55:53;97569.55;;;9.91;91.72
77118;BME280;66072;50.238;19.228;2024-03-23T06:58:24;97568.59;;;10.05;91.23
77118;BME280;66072;50.238;19.228;2024-03-23T07:00:51;97566.69;;;10.14;90.52
77118;BME280;66072;50.238;19.228;2024-03-23T07:03:19;97565.32;;;10.23;90.48
77118;BME280;66072;50.238;19.228;2024-03-23T07:05:46;97564.30;;;10.29;89.24
77118;BME280;66072;50.238;19.228;2024-03-23T07:08:14;97561.87;;;10.35;88.85
77118;BME280;66072;50.238;19.228;2024-03-23T07:10:41;97562.02;;;10.46;88.42
77118;BME280;66072;50.238;19.228;2024-03-23T07:13:09;97559.82;;;10.60;88.09
77118;BME280;66072;50.238;19.228;2024-03-23T07:15:38;97560.45;;;10.75;87.95
77118;BME280;66072;50.238;19.228;2024-03-23T07:18:06;97553.70;;;10.90;87.48
77118;BME280;66072;50.238;19.228;2024-03-23T07:20:33;97549.94;;;11.01;86.84
77118;BME280;66072;50.238;19.228;2024-03-23T07:23:01;97551.84;;;11.14;87.07
77118;BME280;66072;50.238;19.228;2024-03-23T07:25:28;97550.91;;;11.26;86.54
77118;BME280;66072;50.238;19.228;2024-03-23T07:27:56;97551.73;;;11.35;85.96
77118;BME280;66072;50.238;19.228;2024-03-23T07:30:23;97546.02;;;11.44;85.01
77118;BME280;66072;50.238;19.228;2024-03-23T07:32:50;97546.70;;;11.52;83.71
77118;BME280;66072;50.238;19.228;2024-03-23T07:35:18;97547.75;;;11.59;82.28
77118;BME280;66072;50.238;19.228;2024-03-23T07:37:46;97548.49;;;11.76;82.31
77118;BME280;66072;50.238;19.228;2024-03-23T07:40:13;97539.89;;;11.98;81.91
77118;BME280;66072;50.238;19.228;2024-03-23T07:42:40;97539.06;;;12.15;81.84
77118;BME280;66072;50.238;19.228;2024-03-23T07:45:08;97539.02;;;12.28;80.15
77118;BME280;66072;50.238;19.228;2024-03-23T07:47:36;97535.65;;;12.37;79.87
77118;BME280;66072;50.238;19.228;2024-03-23T07:50:03;97536.52;;;12.43;79.97
77118;BME280;66072;50.238;19.228;2024-03-23T07:52:31;97532.16;;;12.48;79.73
77118;BME280;66072;50.238;19.228;2024-03-23T07:54:58;97529.70;;;12.54;77.32
77118;BME280;66072;50.238;19.228;2024-03-23T07:57:25;97529.67;;;12.62;77.13
77118;BME280;66072;50.238;19.228;2024-03-23T07:59:53;97523.31;;;12.74;77.22
77118;BME280;66072;50.238;19.228;2024-03-23T08:02:20;97520.80;;;12.78;75.65
77118;BME280;66072;50.238;19.228;2024-03-23T08:04:48;97517.08;;;12.73;74.78
77118;BME280;66072;50.238;19.228;2024-03-23T08:07:15;97515.10;;;12.57;73.35
77118;BME280;66072;50.238;19.228;2024-03-23T08:09:44;97514.10;;;12.42;74.59
77118;BME280;66072;50.238;19.228;2024-03-23T08:12:11;97505.69;;;12.29;74.22
77118;BME280;66072;50.238;19.228;2024-03-23T08:14:38;97499.25;;;12.18;74.82
77118;BME280;66072;50.238;19.228;2024-03-23T08:17:06;97485.73;;;12.11;76.12
77118;BME280;66072;50.238;19.228;2024-03-23T08:19:33;97478.29;;;12.09;77.22
77118;BME280;66072;50.238;19.228;2024-03-23T08:22:01;97470.30;;;12.13;77.61
77118;BME280;66072;50.238;19.228;2024-03-23T08:24:28;97477.31;;;12.21;77.50
77118;BME280;66072;50.238;19.228;2024-03-23T08:26:55;97481.55;;;12.31;76.98
77118;BME280;66072;50.238;19.228;2024-03-23T08:29:23;97478.25;;;12.45;75.98
77118;BME280;66072;50.238;19.228;2024-03-23T08:31:50;97474.90;;;12.63;77.72
77118;BME280;66072;50.238;19.228;2024-03-23T08:34:18;97470.08;;;12.89;77.76
77118;BME280;66072;50.238;19.228;2024-03-23T08:36:45;97463.67;;;13.14;76.15
77118;BME280;66072;50.238;19.228;2024-03-23T08:39:13;97457.11;;;13.36;75.19
77118;BME280;66072;50.238;19.228;2024-03-23T08:41:47;97451.58;;;13.64;75.54
77118;BME280;66072;50.238;19.228;2024-03-23T08:44:15;97452.45;;;13.90;74.07
77118;BME280;66072;50.238;19.228;2024-03-23T08:46:42;97441.92;;;14.12;72.39
77118;BME280;66072;50.238;19.228;2024-03-23T08:49:10;97432.17;;;14.28;72.03
77118;BME280;66072;50.238;19.228;2024-03-23T08:51:37;97429.63;;;14.43;70.26
77118;BME280;66072;50.238;19.228;2024-03-23T08:54:04;97422.66;;;14.58;70.00
77118;BME280;66072;50.238;19.228;2024-03-23T08:56:32;97410.42;;;14.75;69.93
77118;BME280;66072;50.238;19.228;2024-03-23T08:58:59;97403.88;;;14.94;69.46
77118;BME280;66072;50.238;19.228;2024-03-23T09:01:27;97402.08;;;15.14;67.50
77118;BME280;66072;50.238;19.228;2024-03-23T09:03:54;97398.99;;;15.31;67.90
77118;BME280;66072;50.238;19.228;2024-03-23T09:06:22;97394.04;;;15.43;67.43
77118;BME280;66072;50.238;19.228;2024-03-23T09:08:49;97388.63;;;15.54;62.95
77118;BME280;66072;50.238;19.228;2024-03-23T09:11:17;97382.22;;;15.56;63.57
77118;BME280;66072;50.238;19.228;2024-03-23T09:13:44;97377.05;;;15.65;65.04
77118;BME280;66072;50.238;19.228;2024-03-23T09:16:12;97374.76;;;15.75;64.32
77118;BME280;66072;50.238;19.228;2024-03-23T09:18:39;97368.79;;;15.75;61.78
77118;BME280;66072;50.238;19.228;2024-03-23T09:21:13;97362.35;;;15.70;62.76
77118;BME280;66072;50.238;19.228;2024-03-23T09:23:44;97360.70;;;15.65;62.97
77118;BME280;66072;50.238;19.228;2024-03-23T09:26:12;97356.05;;;15.62;63.36
77118;BME280;66072;50.238;19.228;2024-03-23T09:28:39;97355.42;;;15.62;63.29
77118;BME280;66072;50.238;19.228;2024-03-23T09:31:08;97351.95;;;15.57;62.22
77118;BME280;66072;50.238;19.228;2024-03-23T09:33:36;97347.77;;;15.60;62.51
77118;BME280;66072;50.238;19.228;2024-03-23T09:36:04;97339.17;;;15.72;61.49
77118;BME280;66072;50.238;19.228;2024-03-23T09:38:32;97336.42;;;15.92;59.17
77118;BME280;66072;50.238;19.228;2024-03-23T09:41:00;97322.72;;;16.15;57.07
77118;BME280;66072;50.238;19.228;2024-03-23T09:43:28;97325.19;;;16.38;55.39
77118;BME280;66072;50.238;19.228;2024-03-23T09:45:55;97313.96;;;16.61;54.38
77118;BME280;66072;50.238;19.228;2024-03-23T09:48:23;97309.22;;;16.95;54.84
77118;BME280;66072;50.238;19.228;2024-03-23T09:50:50;97300.40;;;17.30;52.15
77118;BME280;66072;50.238;19.228;2024-03-23T09:53:18;97288.05;;;17.55;47.52
77118;BME280;66072;50.238;19.228;2024-03-23T09:55:45;97278.47;;;17.65;46.96
77118;BME280;66072;50.238;19.228;2024-03-23T09:58:16;97273.25;;;17.77;45.95
77118;BME280;66072;50.238;19.228;2024-03-23T10:00:44;97265.98;;;17.90;44.60
77118;BME280;66072;50.238;19.228;2024-03-23T10:03:11;97259.35;;;17.96;44.04
77118;BME280;66072;50.238;19.228;2024-03-23T10:05:39;97259.27;;;18.18;44.28
77118;BME280;66072;50.238;19.228;2024-03-23T10:10:41;97250.28;;;18.62;41.36
77118;BME280;66072;50.238;19.228;2024-03-23T10:13:10;97243.41;;;18.83;40.78
77118;BME280;66072;50.238;19.228;2024-03-23T10:15:38;97241.25;;;19.26;42.29
77118;BME280;66072;50.238;19.228;2024-03-23T10:18:18;97234.92;;;19.65;38.92
77118;BME280;66072;50.238;19.228;2024-03-23T10:20:51;97227.86;;;19.93;38.57
77118;BME280;66072;50.238;19.228;2024-03-23T10:23:19;97224.55;;;20.24;38.41
77118;BME280;66072;50.238;19.228;2024-03-23T10:25:46;97212.67;;;20.57;37.95
77118;BME280;66072;50.238;19.228;2024-03-23T10:28:14;97207.43;;;20.80;37.05
77118;BME280;66072;50.238;19.228;2024-03-23T10:30:41;97210.67;;;20.98;35.67
77118;BME280;66072;50.238;19.228;2024-03-23T10:33:10;97210.50;;;21.12;35.31
77118;BME280;66072;50.238;19.228;2024-03-23T10:35:38;97205.05;;;21.21;34.83
77118;BME280;66072;50.238;19.228;2024-03-23T10:38:06;97207.09;;;21.42;35.09
77118;BME280;66072;50.238;19.228;2024-03-23T10:40:35;97199.64;;;21.63;34.55
77118;BME280;66072;50.238;19.228;2024-03-23T10:43:06;97194.45;;;21.80;33.48
77118;BME280;66072;50.238;19.228;2024-03-23T10:45:35;97184.42;;;22.09;33.38
77118;BME280;66072;50.238;19.228;2024-03-23T10:48:04;97180.46;;;22.28;32.89
77118;BME280;66072;50.238;19.228;2024-03-23T10:50:32;97179.40;;;21.84;32.76
77118;BME280;66072;50.238;19.228;2024-03-23T10:53:00;97175.77;;;21.25;34.14
77118;BME280;66072;50.238;19.228;2024-03-23T10:55:28;97172.77;;;21.04;33.73
77118;BME280;66072;50.238;19.228;2024-03-23T10:57:57;97159.02;;;21.44;33.67
77118;BME280;66072;50.238;19.228;2024-03-23T11:00:27;97162.19;;;21.94;34.06
77118;BME280;66072;50.238;19.228;2024-03-23T11:02:54;97160.59;;;22.27;32.63
77118;BME280;66072;50.238;19.228;2024-03-23T11:07:53;97153.80;;;22.60;32.28
77118;BME280;66072;50.238;19.228;2024-03-23T11:10:30;97148.53;;;22.68;31.07
77118;BME280;66072;50.238;19.228;2024-03-23T11:13:21;97138.14;;;22.79;31.42
77118;BME280;66072;50.238;19.228;2024-03-23T11:15:46;97141.20;;;22.97;30.38
77118;BME280;66072;50.238;19.228;2024-03-23T11:18:20;97123.98;;;23.36;31.40
77118;BME280;66072;50.238;19.228;2024-03-23T11:20:48;97104.30;;;23.93;30.82
77118;BME280;66072;50.238;19.228;2024-03-23T11:23:28;97106.75;;;24.38;30.17
77118;BME280;66072;50.238;19.228;2024-03-23T11:25:55;97095.29;;;24.46;28.96
77118;BME280;66072;50.238;19.228;2024-03-23T11:28:23;97089.42;;;24.62;28.89
77118;BME280;66072;50.238;19.228;2024-03-23T11:30:50;97076.81;;;25.07;29.08
77118;BME280;66072;50.238;19.228;2024-03-23T11:33:18;97070.17;;;25.45;28.21
77118;BME280;66072;50.238;19.228;2024-03-23T11:35:46;97052.11;;;25.69;26.88
77118;BME280;66072;50.238;19.228;2024-03-23T11:38:18;97034.58;;;25.88;26.58
77118;BME280;66072;50.238;19.228;2024-03-23T11:40:50;97029.99;;;26.10;25.93
77118;BME280;66072;50.238;19.228;2024-03-23T11:43:19;97029.77;;;26.25;26.02
77118;BME280;66072;50.238;19.228;2024-03-23T11:45:49;97024.27;;;26.46;25.06
77118;BME280;66072;50.238;19.228;2024-03-23T11:48:18;97021.14;;;26.73;24.92
77118;BME280;66072;50.238;19.228;2024-03-23T11:50:48;97008.64;;;27.14;24.70
77118;BME280;66072;50.238;19.228;2024-03-23T11:53:18;97002.23;;;27.53;24.74
77118;BME280;66072;50.238;19.228;2024-03-23T11:55:57;96993.66;;;28.06;24.68
77118;BME280;66072;50.238;19.228;2024-03-23T11:58:26;96987.72;;;28.25;22.63
77118;BME280;66072;50.238;19.228;2024-03-23T12:01:00;96975.83;;;28.14;22.38
77118;BME280;66072;50.238;19.228;2024-03-23T12:03:29;96962.81;;;28.20;22.43
77118;BME280;66072;50.238;19.228;2024-03-23T12:06:01;96957.54;;;28.24;22.52
77118;BME280;66072;50.238;19.228;2024-03-23T12:11:08;96952.96;;;28.12;22.37
77118;BME280;66072;50.238;19.228;2024-03-23T12:13:36;96944.23;;;28.20;22.29
77118;BME280;66072;50.238;19.228;2024-03-23T12:16:14;96939.81;;;28.29;22.45
77118;BME280;66072;50.238;19.228;2024-03-23T12:18:44;96922.92;;;28.71;23.39
77118;BME280;66072;50.238;19.228;2024-03-23T12:21:12;96926.77;;;29.27;22.21
77118;BME280;66072;50.238;19.228;2024-03-23T12:23:40;96926.86;;;29.26;21.04
77118;BME280;66072;50.238;19.228;2024-03-23T12:26:07;96922.05;;;29.02;20.83
77118;BME280;66072;50.238;19.228;2024-03-23T12:28:35;96910.88;;;28.93;20.76
77118;BME280;66072;50.238;19.228;2024-03-23T12:31:03;96908.06;;;28.90;21.23
77118;BME280;66072;50.238;19.228;2024-03-23T12:33:31;96905.29;;;28.91;21.03
77118;BME280;66072;50.238;19.228;2024-03-23T12:35:58;96900.73;;;29.08;20.66
77118;BME280;66072;50.238;19.228;2024-03-23T12:38:26;96889.48;;;28.97;20.53
77118;BME280;66072;50.238;19.228;2024-03-23T12:40:53;96879.66;;;28.14;21.35
77118;BME280;66072;50.238;19.228;2024-03-23T12:43:21;96876.15;;;27.35;22.78
77118;BME280;66072;50.238;19.228;2024-03-23T12:45:49;96871.65;;;28.22;22.50
77118;BME280;66072;50.238;19.228;2024-03-23T12:48:17;96858.27;;;29.11;22.14
77118;BME280;66072;50.238;19.228;2024-03-23T12:50:45;96859.67;;;29.69;20.48
77118;BME280;66072;50.238;19.228;2024-03-23T12:53:13;96846.22;;;30.20;20.37
77118;BME280;66072;50.238;19.228;2024-03-23T12:55:40;96842.17;;;30.86;19.55
77118;BME280;66072;50.238;19.228;2024-03-23T12:58:08;96839.52;;;30.83;17.93
77118;BME280;66072;50.238;19.228;2024-03-23T13:00:35;96829.76;;;30.66;18.19
77118;BME280;66072;50.238;19.228;2024-03-23T13:03:03;96826.33;;;30.54;18.04
77118;BME280;66072;50.238;19.228;2024-03-23T13:05:31;96816.17;;;30.60;18.24
77118;BME280;66072;50.238;19.228;2024-03-23T13:07:59;96818.66;;;31.00;18.14
77118;BME280;66072;50.238;19.228;2024-03-23T13:10:27;96806.52;;;31.28;17.39
77118;BME280;66072;50.238;19.228;2024-03-23T13:12:55;96809.19;;;31.64;17.11
77118;BME280;66072;50.238;19.228;2024-03-23T13:15:23;96806.66;;;31.98;16.88
77118;BME280;66072;50.238;19.228;2024-03-23T13:17:51;96816.68;;;31.65;16.08
77118;BME280;66072;50.238;19.228;2024-03-23T13:20:19;96809.71;;;30.39;17.30
77118;BME280;66072;50.238;19.228;2024-03-23T13:22:46;96806.54;;;28.58;18.73
77118;BME280;66072;50.238;19.228;2024-03-23T13:25:14;96802.63;;;29.27;19.09
77118;BME280;66072;50.238;19.228;2024-03-23T13:27:42;96800.32;;;30.08;17.86
77118;BME280;66072;50.238;19.228;2024-03-23T13:30:11;96800.58;;;29.81;18.22
77118;BME280;66072;50.238;19.228;2024-03-23T13:32:38;96799.08;;;27.95;20.04
77118;BME280;66072;50.238;19.228;2024-03-23T13:35:06;96800.32;;;26.14;21.72
77118;BME280;66072;50.238;19.228;2024-03-23T13:37:33;96795.73;;;24.44;23.61
77118;BME280;66072;50.238;19.228;2024-03-23T13:40:01;96793.50;;;23.34;25.41
77118;BME280;66072;50.238;19.228;2024-03-23T13:42:28;96794.11;;;22.42;26.78
77118;BME280;66072;50.238;19.228;2024-03-23T13:44:55;96795.52;;;21.69;27.82
77118;BME280;66072;50.238;19.228;2024-03-23T13:47:23;96795.81;;;21.00;28.65
77118;BME280;66072;50.238;19.228;2024-03-23T13:49:50;96809.55;;;20.53;29.48
77118;BME280;66072;50.238;19.228;2024-03-23T13:52:18;96813.92;;;20.08;30.13
77118;BME280;66072;50.238;19.228;2024-03-23T13:54:45;96835.86;;;19.74;31.10
77118;BME280;66072;50.238;19.228;2024-03-23T13:57:12;96874.52;;;19.44;31.72
77118;BME280;66072;50.238;19.228;2024-03-23T13:59:40;96998.56;;;18.86;39.13